sensor_id;sensor_type;location;lat;lon;timestamp;pressure;altitude;pressure_sealevel;temperature;humidity
74675;BME280;63200;48.810;12.352;2023-05-07T00:01:41;97466.06;;;9.70;77.33
74675;BME280;63200;48.810;12.352;2023-05-07T00:04:06;97473.66;;;9.68;77.50
74675;BME280;63200;48.810;12.352;2023-05-07T00:06:32;97473.94;;;9.66;77.35
74675;BME280;63200;48.810;12.352;2023-05-07T00:08:58;97479.91;;;9.63;77.62
74675;BME280;63200;48.810;12.352;2023-05-07T00:11:25;97473.97;;;9.56;77.09
74675;BME280;63200;48.810;12.352;2023-05-07T00:13:51;97469.91;;;9.54;77.37
74675;BME280;63200;48.810;12.352;2023-05-07T00:16:16;97473.75;;;9.53;77.83
74675;BME280;63200;48.810;12.352;2023-05-07T00:18:42;97473.75;;;9.53;77.63
74675;BME280;63200;48.810;12.352;2023-05-07T00:21:07;97469.94;;;9.48;77.49
74675;BME280;63200;48.810;12.352;2023-05-07T00:23:32;97472.69;;;9.43;77.57
74675;BME280;63200;48.810;12.352;2023-05-07T00:25:58;97471.09;;;9.37;77.65
74675;BME280;63200;48.810;12.352;2023-05-07T00:28:23;97464.31;;;9.34;76.96
74675;BME280;63200;48.810;12.352;2023-05-07T00:30:48;97461.34;;;9.31;77.09
74675;BME280;63200;48.810;12.352;2023-05-07T00:33:14;97469.47;;;9.31;77.52
74675;BME280;63200;48.810;12.352;2023-05-07T00:35:39;97464.63;;;9.28;77.16
74675;BME280;63200;48.810;12.352;2023-05-07T00:38:04;97462.72;;;9.23;77.69
74675;BME280;63200;48.810;12.352;2023-05-07T00:40:30;97472.19;;;9.21;77.48
74675;BME280;63200;48.810;12.352;2023-05-07T00:42:55;97464.91;;;9.16;77.08
74675;BME280;63200;48.810;12.352;2023-05-07T00:45:28;97439.25;;;8.93;77.23
74675;BME280;63200;48.810;12.352;2023-05-07T00:47:58;97469.00;;;9.08;77.89
74675;BME280;63200;48.810;12.352;2023-05-07T00:50:25;97420.84;;;8.90;77.79
74675;BME280;63200;48.810;12.352;2023-05-07T00:52:51;97432.47;;;8.90;77.93
74675;BME280;63200;48.810;12.352;2023-05-07T00:55:17;97460.31;;;9.11;78.31
74675;BME280;63200;48.810;12.352;2023-05-07T00:57:42;97455.72;;;9.12;78.22
74675;BME280;63200;48.810;12.352;2023-05-07T01:00:08;97455.16;;;9.15;78.04
74675;BME280;63200;48.810;12.352;2023-05-07T01:02:35;97454.06;;;9.21;78.17
74675;BME280;63200;48.810;12.352;2023-05-07T01:05:01;97435.16;;;9.06;78.23
74675;BME280;63200;48.810;12.352;2023-05-07T01:07:29;97455.94;;;9.21;78.23
74675;BME280;63200;48.810;12.352;2023-05-07T01:09:54;97446.53;;;9.08;78.42
74675;BME280;63200;48.810;12.352;2023-05-07T01:12:20;97469.25;;;9.22;78.35
74675;BME280;63200;48.810;12.352;2023-05-07T01:14:46;97463.00;;;9.22;78.61
74675;BME280;63200;48.810;12.352;2023-05-07T01:17:13;97444.63;;;9.08;78.64
74675;BME280;63200;48.810;12.352;2023-05-07T01:19:39;97473.00;;;9.31;78.90
74675;BME280;63200;48.810;12.352;2023-05-07T01:22:08;97465.97;;;9.30;78.63
74675;BME280;63200;48.810;12.352;2023-05-07T01:24:35;97439.22;;;9.08;78.46
74675;BME280;63200;48.810;12.352;2023-05-07T01:27:01;97470.84;;;9.23;78.46
74675;BME280;63200;48.810;12.352;2023-05-07T01:29:27;97472.00;;;9.02;77.70
74675;BME280;63200;48.810;12.352;2023-05-07T01:31:53;97473.63;;;8.97;78.56
74675;BME280;63200;48.810;12.352;2023-05-07T01:34:21;97475.56;;;8.92;78.18
74675;BME280;63200;48.810;12.352;2023-05-07T01:36:47;97482.34;;;8.74;77.87
74675;BME280;63200;48.810;12.352;2023-05-07T01:39:13;97446.34;;;8.53;77.90
74675;BME280;63200;48.810;12.352;2023-05-07T01:41:39;97468.81;;;8.69;78.22
74675;BME280;63200;48.810;12.352;2023-05-07T01:44:05;97443.09;;;8.50;77.93
74675;BME280;63200;48.810;12.352;2023-05-07T01:46:31;97469.34;;;8.65;78.08
74675;BME280;63200;48.810;12.352;2023-05-07T01:48:57;97454.47;;;8.58;78.21
74675;BME280;63200;48.810;12.352;2023-05-07T01:51:23;97465.81;;;8.65;78.57
74675;BME280;63200;48.810;12.352;2023-05-07T01:53:48;97450.94;;;8.57;78.37
74675;BME280;63200;48.810;12.352;2023-05-07T01:56:17;97464.19;;;8.74;78.88
74675;BME280;63200;48.810;12.352;2023-05-07T01:58:43;97459.84;;;8.78;78.53
74675;BME280;63200;48.810;12.352;2023-05-07T02:01:09;97466.88;;;8.74;78.50
74675;BME280;63200;48.810;12.352;2023-05-07T02:03:34;97469.59;;;8.74;78.79
74675;BME280;63200;48.810;12.352;2023-05-07T02:05:59;97464.19;;;8.79;79.05
74675;BME280;63200;48.810;12.352;2023-05-07T02:08:25;97458.53;;;8.71;79.49
74675;BME280;63200;48.810;12.352;2023-05-07T02:10:50;97465.53;;;8.82;79.24
74675;BME280;63200;48.810;12.352;2023-05-07T02:13:16;97471.78;;;8.82;79.35
74675;BME280;63200;48.810;12.352;2023-05-07T02:15:41;97433.34;;;8.65;78.98
74675;BME280;63200;48.810;12.352;2023-05-07T02:18:08;97472.56;;;8.83;79.03
74675;BME280;63200;48.810;12.352;2023-05-07T02:20:34;97478.53;;;8.80;78.57
74675;BME280;63200;48.810;12.352;2023-05-07T02:23:00;97482.59;;;8.72;78.59
74675;BME280;63200;48.810;12.352;2023-05-07T02:25:25;97470.16;;;8.56;78.42
74675;BME280;63200;48.810;12.352;2023-05-07T02:27:50;97471.78;;;8.57;78.52
74675;BME280;63200;48.810;12.352;2023-05-07T02:30:16;97480.97;;;8.56;79.15
74675;BME280;63200;48.810;12.352;2023-05-07T02:32:41;97477.19;;;8.52;79.07
74675;BME280;63200;48.810;12.352;2023-05-07T02:35:07;97451.72;;;8.37;79.08
74675;BME280;63200;48.810;12.352;2023-05-07T02:37:32;97437.69;;;8.30;79.21
74675;BME280;63200;48.810;12.352;2023-05-07T02:39:58;97473.41;;;8.53;79.11
74675;BME280;63200;48.810;12.352;2023-05-07T02:42:23;97470.72;;;8.53;78.84
74675;BME280;63200;48.810;12.352;2023-05-07T02:44:48;97467.44;;;8.50;78.69
74675;BME280;63200;48.810;12.352;2023-05-07T02:47:15;97451.47;;;8.39;78.76
74675;BME280;63200;48.810;12.352;2023-05-07T02:49:40;97425.78;;;8.26;79.22
74675;BME280;63200;48.810;12.352;2023-05-07T02:52:06;97443.34;;;8.39;78.95
74675;BME280;63200;48.810;12.352;2023-05-07T02:54:31;97460.44;;;8.55;79.06
74675;BME280;63200;48.810;12.352;2023-05-07T02:56:57;97454.75;;;8.51;78.84
74675;BME280;63200;48.810;12.352;2023-05-07T02:59:23;97414.97;;;8.21;79.07
74675;BME280;63200;48.810;12.352;2023-05-07T03:01:48;97470.72;;;8.53;78.77
74675;BME280;63200;48.810;12.352;2023-05-07T03:04:13;97458.25;;;8.46;78.60
74675;BME280;63200;48.810;12.352;2023-05-07T03:06:39;97462.56;;;8.42;78.82
74675;BME280;63200;48.810;12.352;2023-05-07T03:09:04;97451.72;;;8.37;78.37
74675;BME280;63200;48.810;12.352;2023-05-07T03:11:29;97452.56;;;8.32;78.23
74675;BME280;63200;48.810;12.352;2023-05-07T03:13:55;97454.72;;;8.30;78.57
74675;BME280;63200;48.810;12.352;2023-05-07T03:16:20;97448.50;;;8.30;78.47
74675;BME280;63200;48.810;12.352;2023-05-07T03:18:45;97429.56;;;8.14;78.20
74675;BME280;63200;48.810;12.352;2023-05-07T03:21:11;97454.97;;;8.29;78.64
74675;BME280;63200;48.810;12.352;2023-05-07T03:23:36;97450.13;;;8.26;78.33
74675;BME280;63200;48.810;12.352;2023-05-07T03:26:02;97420.06;;;8.01;78.44
74675;BME280;63200;48.810;12.352;2023-05-07T03:28:27;97443.63;;;8.11;78.63
74675;BME280;63200;48.810;12.352;2023-05-07T03:30:52;97449.28;;;8.05;78.27
74675;BME280;63200;48.810;12.352;2023-05-07T03:33:17;97443.06;;;7.89;78.44
74675;BME280;63200;48.810;12.352;2023-05-07T03:35:43;97423.31;;;7.73;78.42
74675;BME280;63200;48.810;12.352;2023-05-07T03:38:08;97461.44;;;7.92;78.84
74675;BME280;63200;48.810;12.352;2023-05-07T03:40:34;97462.22;;;7.92;78.68
74675;BME280;63200;48.810;12.352;2023-05-07T03:42:59;97449.00;;;7.91;78.97
74675;BME280;63200;48.810;12.352;2023-05-07T03:45:25;97463.88;;;8.04;79.04
74675;BME280;63200;48.810;12.352;2023-05-07T03:47:51;97469.03;;;8.05;79.05
74675;BME280;63200;48.810;12.352;2023-05-07T03:50:16;97427.88;;;7.77;79.00
74675;BME280;63200;48.810;12.352;2023-05-07T03:52:41;97475.25;;;8.06;79.04
74675;BME280;63200;48.810;12.352;2023-05-07T03:55:07;97474.16;;;8.07;79.01
74675;BME280;63200;48.810;12.352;2023-05-07T03:57:32;97439.78;;;7.87;79.10
74675;BME280;63200;48.810;12.352;2023-05-07T03:59:57;97477.94;;;8.16;79.70
74675;BME280;63200;48.810;12.352;2023-05-07T04:02:23;97489.88;;;8.25;79.38
74675;BME280;63200;48.810;12.352;2023-05-07T04:04:49;97495.56;;;8.29;79.50
74675;BME280;63200;48.810;12.352;2023-05-07T04:07:14;97481.75;;;8.25;79.28
74675;BME280;63200;48.810;12.352;2023-05-07T04:09:40;97482.84;;;8.34;79.38
74675;BME280;63200;48.810;12.352;2023-05-07T04:12:05;97490.44;;;8.43;78.98
74675;BME280;63200;48.810;12.352;2023-05-07T04:14:30;97489.09;;;8.50;79.42
74675;BME280;63200;48.810;12.352;2023-05-07T04:16:58;97480.41;;;8.43;78.93
74675;BME280;63200;48.810;12.352;2023-05-07T04:19:23;97479.91;;;8.46;78.80
74675;BME280;63200;48.810;12.352;2023-05-07T04:21:48;97470.97;;;8.46;78.43
74675;BME280;63200;48.810;12.352;2023-05-07T04:24:14;97501.28;;;8.69;78.31
74675;BME280;63200;48.810;12.352;2023-05-07T04:26:39;97489.66;;;8.73;78.53
74675;BME280;63200;48.810;12.352;2023-05-07T04:29:05;97477.72;;;8.69;78.15
74675;BME280;63200;48.810;12.352;2023-05-07T04:31:30;97462.84;;;8.66;77.98
74675;BME280;63200;48.810;12.352;2023-05-07T04:33:56;97501.78;;;8.86;77.56
74675;BME280;63200;48.810;12.352;2023-05-07T04:36:22;97506.69;;;8.94;77.38
74675;BME280;63200;48.810;12.352;2023-05-07T04:38:47;97505.56;;;9.06;77.05
74675;BME280;63200;48.810;12.352;2023-05-07T04:41:13;97498.22;;;9.22;76.84
74675;BME280;63200;48.810;12.352;2023-05-07T04:43:38;97504.41;;;9.32;76.19
74675;BME280;63200;48.810;12.352;2023-05-07T04:46:03;97490.31;;;9.41;76.33
74675;BME280;63200;48.810;12.352;2023-05-07T04:48:29;97501.59;;;9.63;75.81
74675;BME280;63200;48.810;12.352;2023-05-07T04:50:55;97498.03;;;9.73;75.63
74675;BME280;63200;48.810;12.352;2023-05-07T04:53:20;97505.31;;;9.83;75.32
74675;BME280;63200;48.810;12.352;2023-05-07T04:55:46;97503.38;;;9.89;74.95
74675;BME280;63200;48.810;12.352;2023-05-07T04:58:12;97484.44;;;9.78;75.08
74675;BME280;63200;48.810;12.352;2023-05-07T05:00:37;97471.47;;;9.75;74.87
74675;BME280;63200;48.810;12.352;2023-05-07T05:03:04;97504.81;;;10.21;74.83
74675;BME280;63200;48.810;12.352;2023-05-07T05:05:30;97499.81;;;10.43;73.82
74675;BME280;63200;48.810;12.352;2023-05-07T05:07:55;97513.38;;;10.78;73.10
74675;BME280;63200;48.810;12.352;2023-05-07T05:10:21;97522.06;;;10.80;72.01
74675;BME280;63200;48.810;12.352;2023-05-07T05:12:47;97523.41;;;10.82;72.36
74675;BME280;63200;48.810;12.352;2023-05-07T05:15:12;97504.47;;;10.72;72.15
74675;BME280;63200;48.810;12.352;2023-05-07T05:17:38;97529.25;;;10.95;71.97
74675;BME280;63200;48.810;12.352;2023-05-07T05:20:04;97531.84;;;11.10;71.85
74675;BME280;63200;48.810;12.352;2023-05-07T05:22:30;97529.19;;;11.29;71.70
74675;BME280;63200;48.810;12.352;2023-05-07T05:24:56;97524.97;;;11.42;71.49
74675;BME280;63200;48.810;12.352;2023-05-07T05:27:22;97509.13;;;11.49;71.32
74675;BME280;63200;48.810;12.352;2023-05-07T05:29:47;97522.53;;;11.65;71.27
74675;BME280;63200;48.810;12.352;2023-05-07T05:32:13;97508.44;;;11.63;71.33
74675;BME280;63200;48.810;12.352;2023-05-07T05:34:38;97521.78;;;11.83;71.28
74675;BME280;63200;48.810;12.352;2023-05-07T05:37:03;97523.84;;;11.92;71.11
74675;BME280;63200;48.810;12.352;2023-05-07T05:39:29;97500.84;;;11.84;70.95
74675;BME280;63200;48.810;12.352;2023-05-07T05:41:54;97527.13;;;12.13;71.16
74675;BME280;63200;48.810;12.352;2023-05-07T05:44:19;97530.38;;;12.34;70.63
74675;BME280;63200;48.810;12.352;2023-05-07T05:46:45;97525.88;;;12.43;70.80
74675;BME280;63200;48.810;12.352;2023-05-07T05:49:10;97530.16;;;12.49;70.49
74675;BME280;63200;48.810;12.352;2023-05-07T05:51:35;97522.94;;;12.59;70.39
74675;BME280;63200;48.810;12.352;2023-05-07T05:54:01;97498.59;;;12.81;70.21
74675;BME280;63200;48.810;12.352;2023-05-07T05:56:26;97518.47;;;13.29;69.75
74675;BME280;63200;48.810;12.352;2023-05-07T05:58:52;97524.44;;;13.31;69.01
74675;BME280;63200;48.810;12.352;2023-05-07T06:01:18;97500.56;;;13.09;69.09
74675;BME280;63200;48.810;12.352;2023-05-07T06:03:44;97517.91;;;13.46;68.39
74675;BME280;63200;48.810;12.352;2023-05-07T06:06:09;97533.16;;;13.61;68.23
74675;BME280;63200;48.810;12.352;2023-05-07T06:08:34;97531.66;;;13.69;68.03
74675;BME280;63200;48.810;12.352;2023-05-07T06:11:01;97523.84;;;13.76;67.65
74675;BME280;63200;48.810;12.352;2023-05-07T06:13:26;97527.63;;;13.80;67.72
74675;BME280;63200;48.810;12.352;2023-05-07T06:15:51;97539.03;;;13.82;68.11
74675;BME280;63200;48.810;12.352;2023-05-07T06:18:16;97534.56;;;14.00;67.35
74675;BME280;63200;48.810;12.352;2023-05-07T06:20:42;97534.63;;;14.09;67.12
74675;BME280;63200;48.810;12.352;2023-05-07T06:23:07;97537.50;;;14.04;67.65
74675;BME280;63200;48.810;12.352;2023-05-07T06:25:32;97500.19;;;13.85;67.55
74675;BME280;63200;48.810;12.352;2023-05-07T06:27:58;97538.78;;;14.20;67.77
74675;BME280;63200;48.810;12.352;2023-05-07T06:30:23;97528.56;;;14.48;67.70
74675;BME280;63200;48.810;12.352;2023-05-07T06:32:48;97545.47;;;14.87;66.63
74675;BME280;63200;48.810;12.352;2023-05-07T06:35:14;97545.03;;;14.94;65.46
74675;BME280;63200;48.810;12.352;2023-05-07T06:37:40;97545.88;;;15.03;65.24
74675;BME280;63200;48.810;12.352;2023-05-07T06:40:08;97549.28;;;15.09;65.31
74675;BME280;63200;48.810;12.352;2023-05-07T06:42:33;97566.03;;;15.39;64.82
74675;BME280;63200;48.810;12.352;2023-05-07T06:44:58;97533.47;;;15.60;63.67
74675;BME280;63200;48.810;12.352;2023-05-07T06:47:24;97557.25;;;15.91;64.29
74675;BME280;63200;48.810;12.352;2023-05-07T06:49:49;97560.44;;;16.51;62.33
74675;BME280;63200;48.810;12.352;2023-05-07T06:52:15;97553.34;;;16.85;62.10
74675;BME280;63200;48.810;12.352;2023-05-07T06:54:40;97561.56;;;17.11;60.51
74675;BME280;63200;48.810;12.352;2023-05-07T06:57:05;97544.44;;;17.14;60.84
74675;BME280;63200;48.810;12.352;2023-05-07T06:59:31;97555.84;;;17.42;60.35
74675;BME280;63200;48.810;12.352;2023-05-07T07:01:56;97558.53;;;17.60;60.44
74675;BME280;63200;48.810;12.352;2023-05-07T07:04:21;97555.56;;;17.74;58.50
74675;BME280;63200;48.810;12.352;2023-05-07T07:06:48;97560.34;;;17.86;59.61
74675;BME280;63200;48.810;12.352;2023-05-07T07:09:14;97567.72;;;18.03;58.99
74675;BME280;63200;48.810;12.352;2023-05-07T07:11:39;97561.38;;;18.11;57.90
74675;BME280;63200;48.810;12.352;2023-05-07T07:14:05;97566.09;;;17.63;56.81
74675;BME280;63200;48.810;12.352;2023-05-07T07:16:30;97557.34;;;17.22;59.15
74675;BME280;63200;48.810;12.352;2023-05-07T07:18:56;97558.94;;;17.23;58.83
74675;BME280;63200;48.810;12.352;2023-05-07T07:21:21;97554.25;;;17.24;59.84
74675;BME280;63200;48.810;12.352;2023-05-07T07:23:46;97560.34;;;17.47;59.12
74675;BME280;63200;48.810;12.352;2023-05-07T07:26:12;97550.47;;;18.02;58.11
74675;BME280;63200;48.810;12.352;2023-05-07T07:28:42;97554.94;;;18.37;55.81
74675;BME280;63200;48.810;12.352;2023-05-07T07:31:08;97544.34;;;18.47;55.54
74675;BME280;63200;48.810;12.352;2023-05-07T07:33:34;97542.09;;;18.83;54.54
74675;BME280;63200;48.810;12.352;2023-05-07T07:35:59;97559.56;;;19.21;53.30
74675;BME280;63200;48.810;12.352;2023-05-07T07:38:24;97566.19;;;19.07;53.82
74675;BME280;63200;48.810;12.352;2023-05-07T07:40:50;97562.50;;;18.82;53.53
74675;BME280;63200;48.810;12.352;2023-05-07T07:43:15;97559.28;;;18.38;54.44
74675;BME280;63200;48.810;12.352;2023-05-07T07:45:40;97551.75;;;18.05;55.69
74675;BME280;63200;48.810;12.352;2023-05-07T07:48:06;97542.81;;;18.38;55.66
74675;BME280;63200;48.810;12.352;2023-05-07T07:50:32;97553.84;;;18.50;54.39
74675;BME280;63200;48.810;12.352;2023-05-07T07:52:57;97561.03;;;18.42;55.85
74675;BME280;63200;48.810;12.352;2023-05-07T07:55:22;97566.19;;;18.65;57.04
74675;BME280;63200;48.810;12.352;2023-05-07T07:57:49;97543.66;;;19.26;55.18
74675;BME280;63200;48.810;12.352;2023-05-07T08:00:15;97562.88;;;20.46;52.45
74675;BME280;63200;48.810;12.352;2023-05-07T08:02:40;97565.38;;;20.64;49.90
74675;BME280;63200;48.810;12.352;2023-05-07T08:05:06;97560.16;;;20.87;48.03
74675;BME280;63200;48.810;12.352;2023-05-07T08:07:31;97568.47;;;21.03;49.29
74675;BME280;63200;48.810;12.352;2023-05-07T08:09:57;97565.25;;;20.07;50.53
74675;BME280;63200;48.810;12.352;2023-05-07T08:12:22;97567.56;;;19.47;52.36
74675;BME280;63200;48.810;12.352;2023-05-07T08:14:47;97558.66;;;19.75;53.32
74675;BME280;63200;48.810;12.352;2023-05-07T08:17:12;97570.50;;;19.88;53.02
74675;BME280;63200;48.810;12.352;2023-05-07T08:19:41;97575.78;;;20.05;54.28
74675;BME280;63200;48.810;12.352;2023-05-07T08:22:06;97575.91;;;20.09;51.24
74675;BME280;63200;48.810;12.352;2023-05-07T08:24:31;97555.84;;;20.61;49.71
74675;BME280;63200;48.810;12.352;2023-05-07T08:26:57;97576.88;;;20.78;51.35
74675;BME280;63200;48.810;12.352;2023-05-07T08:29:22;97579.44;;;20.34;50.99
74675;BME280;63200;48.810;12.352;2023-05-07T08:31:47;97578.31;;;20.23;52.71
74675;BME280;63200;48.810;12.352;2023-05-07T08:34:13;97585.13;;;20.66;50.21
74675;BME280;63200;48.810;12.352;2023-05-07T08:36:38;97571.50;;;20.45;51.62
74675;BME280;63200;48.810;12.352;2023-05-07T08:39:03;97574.63;;;20.19;52.91
74675;BME280;63200;48.810;12.352;2023-05-07T08:41:29;97568.78;;;19.83;53.31
74675;BME280;63200;48.810;12.352;2023-05-07T08:43:57;97505.41;;;19.95;49.79
74675;BME280;63200;48.810;12.352;2023-05-07T08:46:25;97584.31;;;20.90;51.26
74675;BME280;63200;48.810;12.352;2023-05-07T08:48:51;97578.63;;;21.27;49.43
74675;BME280;63200;48.810;12.352;2023-05-07T08:51:20;97582.72;;;21.78;48.57
74675;BME280;63200;48.810;12.352;2023-05-07T08:53:48;97570.75;;;22.38;47.15
74675;BME280;63200;48.810;12.352;2023-05-07T08:56:13;97576.69;;;22.24;47.00
74675;BME280;63200;48.810;12.352;2023-05-07T08:58:40;97570.50;;;21.95;48.82
74675;BME280;63200;48.810;12.352;2023-05-07T09:01:10;97585.75;;;21.44;47.79
74675;BME280;63200;48.810;12.352;2023-05-07T09:03:38;97586.16;;;21.14;48.99
74675;BME280;63200;48.810;12.352;2023-05-07T09:06:04;97581.41;;;21.43;49.92
74675;BME280;63200;48.810;12.352;2023-05-07T09:08:30;97563.13;;;21.83;48.43
74675;BME280;63200;48.810;12.352;2023-05-07T09:10:55;97562.84;;;21.88;48.35
74675;BME280;63200;48.810;12.352;2023-05-07T09:13:21;97543.28;;;22.13;46.53
74675;BME280;63200;48.810;12.352;2023-05-07T09:15:46;97578.44;;;22.64;47.79
74675;BME280;63200;48.810;12.352;2023-05-07T09:18:14;97567.44;;;22.87;46.01
74675;BME280;63200;48.810;12.352;2023-05-07T09:20:40;97553.09;;;23.01;46.36
74675;BME280;63200;48.810;12.352;2023-05-07T09:23:06;97566.53;;;24.08;48.59
74675;BME280;63200;48.810;12.352;2023-05-07T09:25:33;97548.78;;;24.70;42.52
74675;BME280;63200;48.810;12.352;2023-05-07T09:28:02;97571.03;;;24.73;42.01
74675;BME280;63200;48.810;12.352;2023-05-07T09:30:29;97568.53;;;24.38;42.21
74675;BME280;63200;48.810;12.352;2023-05-07T09:32:55;97555.78;;;24.60;42.32
74675;BME280;63200;48.810;12.352;2023-05-07T09:35:20;97564.47;;;24.58;41.58
74675;BME280;63200;48.810;12.352;2023-05-07T09:37:56;97546.38;;;24.68;43.06
74675;BME280;63200;48.810;12.352;2023-05-07T09:40:23;97560.09;;;25.18;45.17
74675;BME280;63200;48.810;12.352;2023-05-07T09:42:49;97553.03;;;24.90;41.87
74675;BME280;63200;48.810;12.352;2023-05-07T09:45:16;97560.38;;;25.43;42.61
74675;BME280;63200;48.810;12.352;2023-05-07T09:47:42;97558.13;;;25.56;42.41
74675;BME280;63200;48.810;12.352;2023-05-07T09:50:12;97553.44;;;26.13;38.75
74675;BME280;63200;48.810;12.352;2023-05-07T09:52:39;97545.72;;;25.88;40.23
74675;BME280;63200;48.810;12.352;2023-05-07T09:55:06;97535.19;;;25.29;40.33
74675;BME280;63200;48.810;12.352;2023-05-07T09:57:32;97554.19;;;25.23;40.71
74675;BME280;63200;48.810;12.352;2023-05-07T09:59:59;97549.59;;;25.04;41.89
74675;BME280;63200;48.810;12.352;2023-05-07T10:02:27;97560.69;;;25.01;43.62
74675;BME280;63200;48.810;12.352;2023-05-07T10:04:55;97553.41;;;25.60;40.56
74675;BME280;63200;48.810;12.352;2023-05-07T10:07:21;97552.50;;;25.49;41.03
74675;BME280;63200;48.810;12.352;2023-05-07T10:09:47;97551.03;;;25.63;40.46
74675;BME280;63200;48.810;12.352;2023-05-07T10:12:12;97555.81;;;24.33;42.49
74675;BME280;63200;48.810;12.352;2023-05-07T10:14:38;97554.56;;;24.04;44.55
74675;BME280;63200;48.810;12.352;2023-05-07T10:17:03;97545.88;;;24.05;42.91
74675;BME280;63200;48.810;12.352;2023-05-07T10:19:29;97540.38;;;24.09;42.05
74675;BME280;63200;48.810;12.352;2023-05-07T10:21:59;97559.13;;;24.42;42.62
74675;BME280;63200;48.810;12.352;2023-05-07T10:24:31;97555.84;;;24.94;40.80
74675;BME280;63200;48.810;12.352;2023-05-07T10:26:59;97537.66;;;24.39;41.63
74675;BME280;63200;48.810;12.352;2023-05-07T10:30:03;97546.69;;;24.90;40.24
74675;BME280;63200;48.810;12.352;2023-05-07T10:32:38;97550.09;;;25.14;38.52
74675;BME280;63200;48.810;12.352;2023-05-07T10:35:09;97536.19;;;25.10;39.39
74675;BME280;63200;48.810;12.352;2023-05-07T10:37:36;97542.38;;;24.96;40.06
74675;BME280;63200;48.810;12.352;2023-05-07T10:40:02;97544.50;;;25.89;40.44
74675;BME280;63200;48.810;12.352;2023-05-07T10:42:27;97534.91;;;26.35;37.28
74675;BME280;63200;48.810;12.352;2023-05-07T10:44:53;97554.47;;;26.46;37.87
74675;BME280;63200;48.810;12.352;2023-05-07T10:47:18;97552.34;;;25.76;37.26
74675;BME280;63200;48.810;12.352;2023-05-07T10:52:19;97537.47;;;25.20;38.57
74675;BME280;63200;48.810;12.352;2023-05-07T10:54:45;97533.06;;;25.15;39.08
74675;BME280;63200;48.810;12.352;2023-05-07T10:57:36;97547.84;;;25.60;38.00
74675;BME280;63200;48.810;12.352;2023-05-07T11:00:40;97532.94;;;26.35;39.06
74675;BME280;63200;48.810;12.352;2023-05-07T11:03:06;97533.78;;;26.43;36.50
74675;BME280;63200;48.810;12.352;2023-05-07T11:05:32;97536.28;;;26.03;37.07
74675;BME280;63200;48.810;12.352;2023-05-07T11:08:00;97533.41;;;25.10;37.12
74675;BME280;63200;48.810;12.352;2023-05-07T11:10:52;97533.38;;;25.06;38.13
74675;BME280;63200;48.810;12.352;2023-05-07T11:13:40;97530.78;;;25.62;38.30
74675;BME280;63200;48.810;12.352;2023-05-07T11:16:04;97531.97;;;26.09;36.84
74675;BME280;63200;48.810;12.352;2023-05-07T11:18:47;97524.13;;;26.22;35.22
74675;BME280;63200;48.810;12.352;2023-05-07T11:21:13;97523.78;;;26.35;36.34
74675;BME280;63200;48.810;12.352;2023-05-07T11:26:07;97529.38;;;25.04;36.93
74675;BME280;63200;48.810;12.352;2023-05-07T11:28:37;97522.72;;;25.94;36.89
74675;BME280;63200;48.810;12.352;2023-05-07T11:31:03;97529.38;;;26.38;34.45
74675;BME280;63200;48.810;12.352;2023-05-07T11:33:30;97499.63;;;25.94;36.83
74675;BME280;63200;48.810;12.352;2023-05-07T11:35:56;97510.22;;;26.26;36.58
74675;BME280;63200;48.810;12.352;2023-05-07T11:38:22;97530.22;;;26.50;35.35
74675;BME280;63200;48.810;12.352;2023-05-07T11:40:55;97532.56;;;26.37;36.56
74675;BME280;63200;48.810;12.352;2023-05-07T11:43:21;97527.22;;;26.14;35.07
74675;BME280;63200;48.810;12.352;2023-05-07T11:45:48;97524.16;;;25.81;35.43
74675;BME280;63200;48.810;12.352;2023-05-07T11:48:14;97524.00;;;26.04;36.74
74675;BME280;63200;48.810;12.352;2023-05-07T11:50:50;97507.47;;;26.30;35.33
74675;BME280;63200;48.810;12.352;2023-05-07T11:53:16;97513.78;;;27.07;35.44
74675;BME280;63200;48.810;12.352;2023-05-07T11:55:42;97521.38;;;27.14;33.09
74675;BME280;63200;48.810;12.352;2023-05-07T11:58:10;97514.13;;;26.88;32.14
74675;BME280;63200;48.810;12.352;2023-05-07T12:00:36;97513.28;;;26.76;33.23
74675;BME280;63200;48.810;12.352;2023-05-07T12:03:04;97515.94;;;25.95;37.01
74675;BME280;63200;48.810;12.352;2023-05-07T12:05:30;97519.84;;;26.43;35.56
74675;BME280;63200;48.810;12.352;2023-05-07T12:07:56;97509.44;;;26.29;34.71
74675;BME280;63200;48.810;12.352;2023-05-07T12:10:22;97511.50;;;26.39;32.90
74675;BME280;63200;48.810;12.352;2023-05-07T12:12:47;97504.69;;;26.33;34.40
74675;BME280;63200;48.810;12.352;2023-05-07T12:15:18;97515.16;;;26.61;34.55
74675;BME280;63200;48.810;12.352;2023-05-07T12:17:47;97511.00;;;27.07;33.27
74675;BME280;63200;48.810;12.352;2023-05-07T12:20:13;97518.28;;;27.59;32.70
74675;BME280;63200;48.810;12.352;2023-05-07T12:22:40;97485.88;;;26.86;32.53
74675;BME280;63200;48.810;12.352;2023-05-07T12:25:06;97519.13;;;26.53;33.92
74675;BME280;63200;48.810;12.352;2023-05-07T12:27:32;97525.34;;;26.28;34.22
74675;BME280;63200;48.810;12.352;2023-05-07T12:29:57;97513.38;;;26.98;35.62
74675;BME280;63200;48.810;12.352;2023-05-07T12:32:24;97484.75;;;27.08;32.93
74675;BME280;63200;48.810;12.352;2023-05-07T12:34:50;97509.91;;;27.81;33.36
74675;BME280;63200;48.810;12.352;2023-05-07T12:37:16;97471.63;;;27.31;32.41
74675;BME280;63200;48.810;12.352;2023-05-07T12:39:47;97497.44;;;26.99;32.38
74675;BME280;63200;48.810;12.352;2023-05-07T12:42:15;97503.84;;;27.10;32.71
74675;BME280;63200;48.810;12.352;2023-05-07T12:44:41;97511.00;;;27.15;33.10
74675;BME280;63200;48.810;12.352;2023-05-07T12:47:10;97501.94;;;27.43;32.70
74675;BME280;63200;48.810;12.352;2023-05-07T12:49:35;97487.59;;;27.66;33.66
74675;BME280;63200;48.810;12.352;2023-05-07T12:52:04;97502.28;;;27.31;32.17
74675;BME280;63200;48.810;12.352;2023-05-07T12:54:36;97494.31;;;27.22;33.68
74675;BME280;63200;48.810;12.352;2023-05-07T12:57:03;97485.63;;;27.56;32.12